createdAt,value
2022-12-11T00:08:02.217Z,9.29
2022-12-11T00:20:02.208Z,9.29
2022-12-11T00:32:02.269Z,9.29
2022-12-11T00:44:02.082Z,9.28
2022-12-11T00:56:02.175Z,9.28
2022-12-11T01:08:02.302Z,9.27
2022-12-11T01:20:02.180Z,9.27
2022-12-11T01:32:02.200Z,9.26
2022-12-11T01:44:02.189Z,9.26
2022-12-11T01:56:02.085Z,9.25
2022-12-11T02:08:02.177Z,9.25
2022-12-11T02:20:02.188Z,9.24
2022-12-11T02:32:02.153Z,9.24
2022-12-11T02:44:02.097Z,9.24
2022-12-11T02:56:02.088Z,9.23
2022-12-11T03:08:02.233Z,9.22
2022-12-11T03:20:02.177Z,9.22
2022-12-11T03:32:02.083Z,9.21
2022-12-11T03:44:02.201Z,9.20
2022-12-11T03:56:02.092Z,9.20
2022-12-11T04:08:02.255Z,9.19
2022-12-11T04:20:02.192Z,9.19
2022-12-11T04:32:02.178Z,9.18
2022-12-11T04:44:02.193Z,9.18
2022-12-11T04:56:02.198Z,9.16
2022-12-11T05:08:02.140Z,9.16
2022-12-11T05:20:02.183Z,9.16
2022-12-11T05:32:02.089Z,9.14
2022-12-11T05:44:02.080Z,9.14
2022-12-11T05:56:02.208Z,9.13
2022-12-11T06:08:02.201Z,9.12
2022-12-11T06:20:02.088Z,9.12
2022-12-11T06:32:02.226Z,9.11
2022-12-11T06:44:02.193Z,9.10
2022-12-11T06:56:02.088Z,9.09
2022-12-11T07:08:02.252Z,9.08
2022-12-11T07:20:02.207Z,9.08
2022-12-11T07:32:02.191Z,9.08
2022-12-11T07:44:02.078Z,9.07
2022-12-11T07:56:02.193Z,9.07
2022-12-11T08:08:02.167Z,9.06
2022-12-11T08:20:02.201Z,9.06
2022-12-11T08:32:03.639Z,9.06
2022-12-11T08:44:02.195Z,9.05
2022-12-11T08:56:02.076Z,9.04
2022-12-11T09:08:02.279Z,9.04
2022-12-11T09:20:02.194Z,9.04
2022-12-11T09:32:02.197Z,9.03
2022-12-11T09:44:02.201Z,9.03
2022-12-11T09:56:02.202Z,9.02
2022-12-11T10:08:02.290Z,9.02
2022-12-11T10:20:02.202Z,9.01
2022-12-11T10:32:02.196Z,9.00
2022-12-11T10:44:02.202Z,9.07
2022-12-11T10:56:02.103Z,9.14
2022-12-11T11:08:02.137Z,9.13
2022-12-11T11:20:02.122Z,9.13
2022-12-11T11:32:02.176Z,9.12
2022-12-11T11:44:02.090Z,9.12
2022-12-11T11:56:02.141Z,9.11
2022-12-11T12:08:02.274Z,9.10
2022-12-11T12:20:02.187Z,9.10
2022-12-11T12:32:02.136Z,9.09
2022-12-11T12:44:02.154Z,9.10
2022-12-11T12:56:02.191Z,9.09
2022-12-11T13:08:02.236Z,9.09
2022-12-11T13:20:02.097Z,9.08
2022-12-11T13:32:02.120Z,9.09
2022-12-11T13:44:02.200Z,9.08
2022-12-11T13:56:02.172Z,9.07
2022-12-11T14:08:02.148Z,9.06
2022-12-11T14:20:02.183Z,9.06
2022-12-11T14:32:02.111Z,9.05
2022-12-11T14:44:02.087Z,9.04
2022-12-11T14:56:02.089Z,9.04
2022-12-11T15:08:02.177Z,9.03
2022-12-11T15:20:02.206Z,9.02
2022-12-11T15:32:02.092Z,9.01
2022-12-11T15:44:02.094Z,9.00
2022-12-11T15:56:02.086Z,8.98
2022-12-11T16:08:02.206Z,0.60
2022-12-11T16:20:02.086Z,0.59
2022-12-11T16:32:02.136Z,0.59
2022-12-11T16:44:02.109Z,0.59
2022-12-11T16:56:02.207Z,0.59
2022-12-11T17:08:02.179Z,0.59
2022-12-11T17:20:02.092Z,0.59
2022-12-11T17:32:02.192Z,0.59
2022-12-11T17:44:02.178Z,0.59
2022-12-11T17:56:02.236Z,0.59
2022-12-11T18:08:02.302Z,0.59
2022-12-11T18:20:02.202Z,0.59
2022-12-11T18:32:02.330Z,0.59
2022-12-11T18:44:08.014Z,0.59
2022-12-11T18:56:02.208Z,0.59
2022-12-11T19:08:02.144Z,0.60
2022-12-11T19:20:18.736Z,0.59
2022-12-11T19:32:02.178Z,0.60
2022-12-11T19:44:02.097Z,0.60
2022-12-11T19:56:02.091Z,0.59
2022-12-11T20:08:35.349Z,0.59
2022-12-11T20:20:02.189Z,0.60
2022-12-11T20:32:02.259Z,0.59
2022-12-11T20:44:02.097Z,0.59
2022-12-11T20:56:03.071Z,0.60
2022-12-11T21:08:02.261Z,0.60
2022-12-11T21:20:02.185Z,0.59
2022-12-11T21:32:02.245Z,0.59
2022-12-11T21:56:02.189Z,0.59
2022-12-11T22:08:02.154Z,0.60
2022-12-11T22:20:02.210Z,0.60
2022-12-11T22:32:03.268Z,0.59
2022-12-11T22:44:02.197Z,0.60
2022-12-11T22:56:02.154Z,0.60
2022-12-11T23:08:02.259Z,0.60
2022-12-11T23:20:02.175Z,0.60
2022-12-11T23:32:02.278Z,0.60
2022-12-11T23:44:02.186Z,0.60
2022-12-11T23:56:02.195Z,0.60
